Two Hills, Canada
Current Conditions -  °F | °C
As of 5:00 AM on Saturday 25 Oct 2014 (Local Time) from CYED Reporting Station
Clear Clear  
Wind Chill: -5°   Ceiling: Unl
Heat Index: -2°   Visibility: 9mi
Dew Point: -7°   Wind: 5mph
Humidity: 69%   Direction: 230°SW
Pressure: 30"   Gusts: NA
Location:  53.72°N, 111.75°W
Report Text: CYED 251100Z AUTO 23004KT 9SM CLR M02/M07 A3000 RMK SLP184
Loading
Personal Weather Stations






























Interactive Weather Map
Tropical Storm Tracking
New forecast layout! Learn more

10-Day Weather Forecast

Advertisements
Track Severe Weather on mobile